createdAt,value
2022-09-16T00:00:55.690Z,62.60
2022-09-16T00:03:22.752Z,62.12
2022-09-16T00:05:52.577Z,61.88
2022-09-16T00:08:20.448Z,61.63
2022-09-16T00:10:50.221Z,61.46
2022-09-16T00:13:17.984Z,61.57
2022-09-16T00:15:53.892Z,61.31
2022-09-16T00:18:20.644Z,61.90
2022-09-16T00:20:50.971Z,61.79
2022-09-16T00:23:18.980Z,61.73
2022-09-16T00:25:56.204Z,61.94
2022-09-16T00:28:26.478Z,61.69
2022-09-16T00:30:58.971Z,62.30
2022-09-16T00:33:25.958Z,61.90
2022-09-16T00:35:52.823Z,61.96
2022-09-16T00:38:19.861Z,61.71
2022-09-16T00:40:48.913Z,62.65
2022-09-16T00:43:19.034Z,62.38
2022-09-16T00:45:56.756Z,62.30
2022-09-16T00:48:27.880Z,62.93
2022-09-16T00:50:59.964Z,63.12
2022-09-16T00:53:42.733Z,63.12
2022-09-16T00:56:15.338Z,63.21
2022-09-16T00:59:02.332Z,63.47
2022-09-16T01:01:31.993Z,63.94
2022-09-16T01:04:04.375Z,64.21
2022-09-16T01:06:32.298Z,64.17
2022-09-16T01:09:00.605Z,64.41
2022-09-16T01:11:29.354Z,64.33
2022-09-16T01:14:16.613Z,63.97
2022-09-16T01:16:52.008Z,63.74
2022-09-16T01:19:39.962Z,63.54
2022-09-16T01:22:41.065Z,63.66
2022-09-16T01:25:15.672Z,63.75
2022-09-16T01:27:56.414Z,63.35
2022-09-16T01:30:29.322Z,63.10
2022-09-16T01:33:14.232Z,62.55
2022-09-16T01:35:58.290Z,62.46
2022-09-16T01:38:51.400Z,62.46
2022-09-16T01:41:33.334Z,62.60
2022-09-16T01:44:39.356Z,62.82
2022-09-16T01:47:18.593Z,62.17
2022-09-16T01:50:06.256Z,62.25
2022-09-16T01:52:36.863Z,62.49
2022-09-16T01:55:20.852Z,62.76
2022-09-16T01:57:57.269Z,62.18
2022-09-16T02:00:25.691Z,62.37
2022-09-16T02:03:03.960Z,62.42
2022-09-16T02:05:48.925Z,62.32
2022-09-16T02:08:22.798Z,62.51
2022-09-16T02:11:12.987Z,62.59
2022-09-16T02:13:44.655Z,62.50
2022-09-16T02:16:16.953Z,62.78
2022-09-16T02:18:51.850Z,62.91
2022-09-16T02:21:24.255Z,62.19
2022-09-16T02:23:57.818Z,62.38
2022-09-16T02:26:39.017Z,61.84
2022-09-16T02:29:18.793Z,61.42
2022-09-16T02:31:53.564Z,60.75
2022-09-16T02:34:34.141Z,61.28
2022-09-16T02:37:09.976Z,61.11
2022-09-16T02:39:41.682Z,60.90
2022-09-16T02:42:11.567Z,60.80
2022-09-16T02:44:39.697Z,61.49
2022-09-16T02:47:13.912Z,61.77
2022-09-16T02:50:01.095Z,61.66
2022-09-16T02:52:53.549Z,62.34
2022-09-16T02:55:50.422Z,61.78
2022-09-16T02:58:17.391Z,61.87
2022-09-16T03:00:49.049Z,61.98
2022-09-16T03:03:16.185Z,61.72
2022-09-16T03:06:10.648Z,62.00
2022-09-16T03:08:38.805Z,61.67
2022-09-16T03:11:29.954Z,61.55
2022-09-16T03:14:15.788Z,62.00
2022-09-16T03:16:53.649Z,61.95
2022-09-16T03:19:48.517Z,61.47
2022-09-16T03:22:30.123Z,61.68
2022-09-16T03:25:23.437Z,61.71
2022-09-16T03:28:12.096Z,61.16
2022-09-16T03:30:49.184Z,61.08
2022-09-16T03:33:30.110Z,61.36
2022-09-16T03:36:03.488Z,61.34
2022-09-16T03:38:31.866Z,61.09
2022-09-16T03:41:02.784Z,60.76
2022-09-16T03:43:30.978Z,60.70
2022-09-16T03:45:59.553Z,60.77
2022-09-16T03:48:26.812Z,60.97
2022-09-16T03:50:54.254Z,61.37
2022-09-16T03:53:20.913Z,61.75
2022-09-16T03:55:50.373Z,61.69
2022-09-16T03:58:17.453Z,61.78
2022-09-16T04:00:50.927Z,61.78
2022-09-16T04:03:17.968Z,60.86
2022-09-16T04:05:44.693Z,61.14
2022-09-16T04:08:12.123Z,61.25
2022-09-16T04:10:38.968Z,61.27
2022-09-16T04:13:05.685Z,61.40
2022-09-16T04:15:37.214Z,61.20
2022-09-16T04:18:04.598Z,60.93
2022-09-16T04:20:31.335Z,61.44
2022-09-16T04:22:57.989Z,61.47
2022-09-16T04:25:37.493Z,61.40
2022-09-16T04:28:04.225Z,60.99
2022-09-16T04:30:32.309Z,61.65
2022-09-16T04:33:00.603Z,61.54
2022-09-16T04:35:27.354Z,61.35
2022-09-16T04:37:54.262Z,61.49
2022-09-16T04:40:25.240Z,61.03
2022-09-16T04:42:53.268Z,61.33
2022-09-16T04:45:20.043Z,61.09
2022-09-16T04:47:46.853Z,60.78
2022-09-16T04:50:14.492Z,60.63
2022-09-16T04:52:48.191Z,60.84
2022-09-16T04:55:15.667Z,60.96
2022-09-16T04:57:43.066Z,60.87
2022-09-16T05:00:11.483Z,60.72
2022-09-16T05:02:41.323Z,60.88
2022-09-16T05:05:08.261Z,60.52
2022-09-16T05:07:36.503Z,60.30
2022-09-16T05:10:06.992Z,59.99
2022-09-16T05:12:34.166Z,60.08
2022-09-16T05:15:00.850Z,60.18
2022-09-16T05:17:49.923Z,60.39
2022-09-16T05:20:17.674Z,60.13
2022-09-16T05:22:45.373Z,59.85
2022-09-16T05:25:13.333Z,59.39
2022-09-16T05:27:41.245Z,59.04
2022-09-16T05:30:11.333Z,58.92
2022-09-16T05:32:38.163Z,59.27
2022-09-16T05:35:07.077Z,58.93
2022-09-16T05:37:34.192Z,58.95
2022-09-16T05:40:00.958Z,59.03
2022-09-16T05:42:29.710Z,58.86
2022-09-16T05:44:56.388Z,58.67
2022-09-16T05:47:23.043Z,58.40
2022-09-16T05:49:54.745Z,58.62
2022-09-16T05:52:25.437Z,58.45
2022-09-16T05:54:52.598Z,58.67
2022-09-16T05:57:21.682Z,58.23
2022-09-16T05:59:48.625Z,57.79
2022-09-16T06:02:16.676Z,57.82
2022-09-16T06:04:43.689Z,57.59
2022-09-16T06:07:11.004Z,57.53
2022-09-16T06:09:38.648Z,58.01
2022-09-16T06:12:06.928Z,58.59
2022-09-16T06:14:33.684Z,58.88
2022-09-16T06:17:00.440Z,59.13
2022-09-16T06:19:27.554Z,59.16
2022-09-16T06:21:55.465Z,59.05
2022-09-16T06:24:25.236Z,58.35
2022-09-16T06:26:51.968Z,57.47
2022-09-16T06:29:19.341Z,56.95
2022-09-16T06:31:55.333Z,53.80
2022-09-16T06:34:26.676Z,50.71
2022-09-16T06:36:54.027Z,49.33
2022-09-16T06:39:24.588Z,47.44
2022-09-16T06:41:51.891Z,45.66
2022-09-16T06:44:19.846Z,44.45
2022-09-16T06:46:46.977Z,46.10
2022-09-16T06:49:14.985Z,47.15
2022-09-16T06:51:42.077Z,47.57
2022-09-16T06:54:11.919Z,47.16
2022-09-16T06:56:41.118Z,47.08
2022-09-16T06:59:08.611Z,47.75
2022-09-16T07:01:36.068Z,48.64
2022-09-16T07:04:05.511Z,49.16
2022-09-16T07:07:04.862Z,49.68
2022-09-16T07:09:32.376Z,50.13
2022-09-16T07:11:59.352Z,50.32
2022-09-16T07:14:27.980Z,50.72
2022-09-16T07:16:55.742Z,50.79
2022-09-16T07:19:22.712Z,50.00
2022-09-16T07:21:49.810Z,49.37
2022-09-16T07:24:16.713Z,48.89
2022-09-16T07:26:45.040Z,48.37
2022-09-16T07:29:15.233Z,48.06
2022-09-16T07:31:44.415Z,47.41
2022-09-16T07:34:14.709Z,46.71
2022-09-16T07:36:46.848Z,46.61
2022-09-16T07:39:17.957Z,46.38
2022-09-16T07:41:52.682Z,47.19
2022-09-16T07:44:20.687Z,47.60
2022-09-16T07:46:48.344Z,47.79
2022-09-16T07:49:17.560Z,48.38
2022-09-16T07:51:45.535Z,48.80
2022-09-16T07:54:15.775Z,47.88
2022-09-16T07:56:44.484Z,44.81
2022-09-16T07:59:18.308Z,40.90
2022-09-16T08:01:49.673Z,39.50
2022-09-16T08:04:19.562Z,38.76
2022-09-16T08:06:46.460Z,38.08
2022-09-16T08:12:02.704Z,37.58
2022-09-16T08:14:29.476Z,37.22
2022-09-16T08:16:59.292Z,36.25
2022-09-16T08:19:26.132Z,35.31
2022-09-16T08:21:54.729Z,32.56
2022-09-16T08:24:21.580Z,31.30
2022-09-16T08:26:48.383Z,31.64
2022-09-16T08:29:16.821Z,30.00
2022-09-16T08:31:44.543Z,28.28
2022-09-16T08:34:11.268Z,28.56
2022-09-16T08:36:37.977Z,29.50
2022-09-16T08:39:04.779Z,32.40
2022-09-16T08:41:44.542Z,33.23
2022-09-16T08:44:43.103Z,35.36
2022-09-16T08:47:42.664Z,34.95
2022-09-16T08:50:31.711Z,30.00
2022-09-16T08:53:07.297Z,27.84
2022-09-16T08:55:40.971Z,26.31
2022-09-16T08:58:37.546Z,26.55
2022-09-16T09:01:17.787Z,27.09
2022-09-16T09:03:46.570Z,25.87
2022-09-16T09:06:31.564Z,26.79
2022-09-16T09:09:17.037Z,27.89
2022-09-16T09:12:08.473Z,28.94
2022-09-16T09:14:59.222Z,29.10
2022-09-16T09:17:37.261Z,27.71
2022-09-16T09:20:26.558Z,27.52
2022-09-16T09:23:12.056Z,24.72
2022-09-16T09:25:57.843Z,21.98
2022-09-16T09:28:45.753Z,21.06
2022-09-16T09:31:29.640Z,19.94
2022-09-16T09:34:34.165Z,22.69
2022-09-16T09:37:44.807Z,24.16
2022-09-16T09:40:16.415Z,23.65
2022-09-16T09:42:53.548Z,25.97
2022-09-16T09:45:35.723Z,27.03
2022-09-16T09:48:21.179Z,28.01
2022-09-16T09:50:49.706Z,28.91
2022-09-16T09:53:28.089Z,30.42
2022-09-16T09:56:51.256Z,31.26
2022-09-16T09:59:47.097Z,32.00
2022-09-16T10:02:21.950Z,34.09
2022-09-16T10:04:51.881Z,36.12
2022-09-16T10:07:22.164Z,37.06
2022-09-16T10:09:55.308Z,37.62
2022-09-16T10:12:36.104Z,36.73
2022-09-16T10:15:04.633Z,37.62
2022-09-16T10:17:32.867Z,32.93
2022-09-16T10:20:20.828Z,27.47
2022-09-16T10:23:00.687Z,23.27
2022-09-16T10:25:32.104Z,22.66
2022-09-16T10:28:01.317Z,21.20
2022-09-16T10:30:33.257Z,21.52
2022-09-16T10:33:24.666Z,20.55
2022-09-16T10:35:57.796Z,20.83
2022-09-16T10:38:34.812Z,23.62
2022-09-16T10:41:14.744Z,26.20
2022-09-16T10:43:59.639Z,29.22
2022-09-16T10:46:27.818Z,30.92
2022-09-16T10:49:00.734Z,32.42
2022-09-16T10:51:34.297Z,33.41
2022-09-16T10:54:07.323Z,35.28
2022-09-16T10:57:11.377Z,35.17
2022-09-16T11:00:13.568Z,35.80
2022-09-16T11:02:59.430Z,34.48
2022-09-16T11:05:44.613Z,33.81
2022-09-16T11:08:30.649Z,31.95
2022-09-16T11:11:35.234Z,30.83
2022-09-16T11:14:39.378Z,30.82
2022-09-16T11:17:18.307Z,30.27
2022-09-16T11:20:02.821Z,29.52
2022-09-16T11:22:46.510Z,28.39
2022-09-16T11:25:34.165Z,27.45
2022-09-16T11:28:37.788Z,25.29
2022-09-16T11:31:13.223Z,24.02
2022-09-16T11:34:01.655Z,23.35
2022-09-16T11:36:58.491Z,22.12
2022-09-16T11:39:46.280Z,22.84
2022-09-16T11:42:33.284Z,23.19
2022-09-16T11:45:20.511Z,24.94
2022-09-16T11:48:06.005Z,26.72
2022-09-16T11:51:11.499Z,28.00
2022-09-16T11:53:57.179Z,28.94
2022-09-16T11:56:35.242Z,27.10
2022-09-16T11:59:40.960Z,25.65
2022-09-16T12:02:29.426Z,25.30
2022-09-16T12:05:23.138Z,25.85
2022-09-16T12:08:24.769Z,28.16
2022-09-16T12:10:59.799Z,28.87
2022-09-16T12:13:39.744Z,29.33
2022-09-16T12:16:18.809Z,30.37
2022-09-16T12:18:53.335Z,30.47
2022-09-16T12:21:57.996Z,31.86
2022-09-16T12:24:41.716Z,30.12
2022-09-16T12:27:35.020Z,31.93
2022-09-16T12:30:18.330Z,33.10
2022-09-16T12:32:53.083Z,33.26
2022-09-16T12:38:01.901Z,32.80
2022-09-16T12:40:43.540Z,32.99
2022-09-16T12:43:13.328Z,32.97
2022-09-16T12:46:19.965Z,32.22
2022-09-16T12:49:03.586Z,32.37
2022-09-16T12:51:48.296Z,31.64
2022-09-16T12:55:06.575Z,31.14
2022-09-16T12:58:08.341Z,30.68
2022-09-16T13:00:38.761Z,31.21
2022-09-16T13:03:16.973Z,30.20
2022-09-16T13:05:50.494Z,29.34
2022-09-16T13:08:29.972Z,30.26
2022-09-16T13:11:47.241Z,30.77
2022-09-16T13:13:56.437Z,30.35
2022-09-16T13:16:35.747Z,31.07
2022-09-16T13:19:25.843Z,31.88
2022-09-16T13:22:06.260Z,32.50
2022-09-16T13:24:54.774Z,33.65
2022-09-16T13:27:24.643Z,35.46
2022-09-16T13:29:51.761Z,35.99
2022-09-16T13:32:27.236Z,37.23
2022-09-16T13:35:02.005Z,38.92
2022-09-16T13:37:28.884Z,42.06
2022-09-16T13:39:55.575Z,44.15
2022-09-16T13:42:24.814Z,44.16
2022-09-16T13:44:52.883Z,43.67
2022-09-16T13:47:35.046Z,41.82
2022-09-16T13:50:13.033Z,41.77
2022-09-16T13:52:41.170Z,41.90
2022-09-16T13:55:21.026Z,39.84
2022-09-16T13:58:08.382Z,38.84
2022-09-16T14:00:50.396Z,38.05
2022-09-16T14:03:37.074Z,37.76
2022-09-16T14:06:37.911Z,37.62
2022-09-16T14:09:04.544Z,37.00
2022-09-16T14:11:53.761Z,36.92
2022-09-16T14:17:32.932Z,36.44
2022-09-16T14:20:01.204Z,36.60
2022-09-16T14:22:28.910Z,36.26
2022-09-16T14:25:06.107Z,36.21
2022-09-16T14:27:43.395Z,35.85
2022-09-16T14:30:32.847Z,35.51
2022-09-16T14:33:04.366Z,38.73
2022-09-16T14:35:33.379Z,41.57
2022-09-16T14:40:53.586Z,44.37
2022-09-16T14:43:21.856Z,46.09
2022-09-16T14:45:54.438Z,46.65
2022-09-16T14:48:28.528Z,47.09
2022-09-16T14:50:56.106Z,47.94
2022-09-16T14:53:38.054Z,48.66
2022-09-16T14:56:05.671Z,48.35
2022-09-16T14:58:34.782Z,49.27
2022-09-16T15:01:12.091Z,50.52
2022-09-16T15:03:44.370Z,51.10
2022-09-16T15:06:19.137Z,48.38
2022-09-16T15:08:57.438Z,48.77
2022-09-16T15:11:48.617Z,51.78
2022-09-16T15:14:21.594Z,51.85
2022-09-16T15:16:56.208Z,52.33
2022-09-16T15:19:31.491Z,53.15
2022-09-16T15:21:58.447Z,54.43
2022-09-16T15:24:33.703Z,54.74
2022-09-16T15:27:01.629Z,54.28
2022-09-16T15:29:35.090Z,55.21
2022-09-16T15:32:21.609Z,56.19
2022-09-16T15:34:49.583Z,55.33
2022-09-16T15:37:49.764Z,56.84
2022-09-16T15:40:20.609Z,55.17
2022-09-16T15:43:02.628Z,55.84
2022-09-16T15:45:30.777Z,57.02
2022-09-16T15:48:11.218Z,57.01
2022-09-16T15:50:44.642Z,56.47
2022-09-16T15:53:32.074Z,56.03
2022-09-16T15:56:05.727Z,56.12
2022-09-16T15:58:33.090Z,54.65
2022-09-16T16:01:20.820Z,55.66
2022-09-16T16:03:54.921Z,55.89
2022-09-16T16:06:56.852Z,54.95
2022-09-16T16:09:27.024Z,55.38
2022-09-16T16:11:58.770Z,55.31
2022-09-16T16:14:34.177Z,55.66
2022-09-16T16:17:19.063Z,54.74
2022-09-16T16:19:48.149Z,54.50
2022-09-16T16:22:18.141Z,54.01
2022-09-16T16:24:45.455Z,53.09
2022-09-16T16:27:12.222Z,52.74
2022-09-16T16:29:41.313Z,54.23
2022-09-16T16:32:11.539Z,53.87
2022-09-16T16:34:48.248Z,53.73
2022-09-16T16:37:33.796Z,53.68
2022-09-16T16:40:06.224Z,52.86
2022-09-16T16:42:36.082Z,52.96
2022-09-16T16:45:07.231Z,53.12
2022-09-16T16:47:34.861Z,53.83
2022-09-16T16:50:02.095Z,51.47
2022-09-16T16:52:29.632Z,49.51
2022-09-16T16:54:56.361Z,49.51
2022-09-16T16:57:25.201Z,50.28
2022-09-16T16:59:52.218Z,51.36
2022-09-16T17:02:20.481Z,50.38
2022-09-16T17:04:53.028Z,51.20
2022-09-16T17:07:26.175Z,51.96
2022-09-16T17:09:54.081Z,51.21
2022-09-16T17:12:20.840Z,51.86
2022-09-16T17:14:48.346Z,51.34
2022-09-16T17:17:15.347Z,51.57
2022-09-16T17:19:42.245Z,50.82
2022-09-16T17:22:10.597Z,50.50
2022-09-16T17:24:39.244Z,50.39
2022-09-16T17:27:06.062Z,49.86
2022-09-16T17:29:32.805Z,50.18
2022-09-16T17:32:05.344Z,49.90
2022-09-16T17:34:32.604Z,50.10
2022-09-16T17:37:04.162Z,50.62
2022-09-16T17:39:32.165Z,51.53
2022-09-16T17:42:02.772Z,51.90
2022-09-16T17:44:29.517Z,51.71
2022-09-16T17:46:56.217Z,52.42
2022-09-16T17:49:24.614Z,51.59
2022-09-16T17:51:53.902Z,51.81
2022-09-16T17:54:21.908Z,51.84
2022-09-16T17:56:51.202Z,51.86
2022-09-16T17:59:19.177Z,52.20
2022-09-16T18:01:46.659Z,52.04
2022-09-16T18:04:14.934Z,52.55
2022-09-16T18:06:45.453Z,52.38
2022-09-16T18:09:14.567Z,52.28
2022-09-16T18:11:43.032Z,52.32
2022-09-16T18:14:12.072Z,51.80
2022-09-16T18:16:40.432Z,51.51
2022-09-16T18:19:08.382Z,51.50
2022-09-16T18:21:38.396Z,51.52
2022-09-16T18:24:10.941Z,51.30
2022-09-16T18:26:38.753Z,51.26
2022-09-16T18:29:11.808Z,51.26
2022-09-16T18:31:44.653Z,50.37
2022-09-16T18:34:12.583Z,51.01
2022-09-16T18:36:43.119Z,51.40
2022-09-16T18:39:18.895Z,51.27
2022-09-16T18:41:46.382Z,51.06
2022-09-16T18:44:17.249Z,50.30
2022-09-16T18:46:45.765Z,50.03
2022-09-16T18:49:15.036Z,49.56
2022-09-16T18:51:50.920Z,49.67
2022-09-16T18:54:29.399Z,49.72
2022-09-16T18:56:57.754Z,49.72
2022-09-16T18:59:28.644Z,49.76
2022-09-16T19:01:58.598Z,49.58
2022-09-16T19:04:32.463Z,50.00
2022-09-16T19:07:07.942Z,50.41
2022-09-16T19:09:42.443Z,51.54
2022-09-16T19:12:11.003Z,52.03
2022-09-16T19:14:38.612Z,52.63
2022-09-16T19:17:05.714Z,53.27
2022-09-16T19:19:33.598Z,53.54
2022-09-16T19:22:05.269Z,53.90
2022-09-16T19:24:33.159Z,54.07
2022-09-16T19:27:03.341Z,54.12
2022-09-16T19:29:30.868Z,54.01
2022-09-16T19:31:58.922Z,54.23
2022-09-16T19:34:25.741Z,54.12
2022-09-16T19:36:55.055Z,54.01
2022-09-16T19:39:24.853Z,54.00
2022-09-16T19:41:53.236Z,54.05
2022-09-16T19:44:21.278Z,54.18
2022-09-16T19:46:49.512Z,53.95
2022-09-16T19:49:19.938Z,53.97
2022-09-16T19:51:48.200Z,53.78
2022-09-16T19:54:15.924Z,53.68
2022-09-16T19:56:45.898Z,53.48
2022-09-16T19:59:15.446Z,52.95
2022-09-16T20:01:42.285Z,53.09
2022-09-16T20:04:12.351Z,53.06
2022-09-16T20:06:41.646Z,53.28
2022-09-16T20:09:14.211Z,53.03
2022-09-16T20:11:47.620Z,52.65
2022-09-16T20:14:20.640Z,52.73
2022-09-16T20:16:52.964Z,52.40
2022-09-16T20:19:24.765Z,51.98
2022-09-16T20:21:53.767Z,51.51
2022-09-16T20:24:25.989Z,51.59
2022-09-16T20:26:58.708Z,51.51
2022-09-16T20:29:35.993Z,51.45
2022-09-16T20:32:09.889Z,51.41
2022-09-16T20:34:36.899Z,51.35
2022-09-16T20:37:05.861Z,51.35
2022-09-16T20:39:34.338Z,51.47
2022-09-16T20:42:01.432Z,51.96
2022-09-16T20:44:28.794Z,51.85
2022-09-16T20:46:58.657Z,51.57
2022-09-16T20:49:40.579Z,52.09
2022-09-16T20:52:07.826Z,52.15
2022-09-16T20:54:36.146Z,52.03
2022-09-16T20:57:03.601Z,52.00
2022-09-16T20:59:36.762Z,52.17
2022-09-16T21:02:06.308Z,52.13
2022-09-16T21:04:33.540Z,52.10
2022-09-16T21:07:02.093Z,52.46
2022-09-16T21:14:14.521Z,52.90
2022-09-16T21:16:42.868Z,52.57
2022-09-16T21:19:12.652Z,53.46
2022-09-16T21:21:44.762Z,53.09
2022-09-16T21:24:16.558Z,53.09
2022-09-16T21:26:46.629Z,53.40
2022-09-16T21:29:21.537Z,53.26
2022-09-16T21:31:50.464Z,53.09
2022-09-16T21:34:21.320Z,53.47
2022-09-16T21:36:50.510Z,53.50
2022-09-16T21:39:22.563Z,53.70
2022-09-16T21:41:51.706Z,54.00
2022-09-16T21:44:19.567Z,53.98
2022-09-16T21:46:47.067Z,53.92
2022-09-16T21:49:30.206Z,54.09
2022-09-16T21:52:06.795Z,54.15
2022-09-16T21:54:41.200Z,54.33
2022-09-16T21:57:14.401Z,54.30
2022-09-16T21:59:43.594Z,54.26
2022-09-16T22:02:12.823Z,54.48
2022-09-16T22:04:39.535Z,54.48
2022-09-16T22:07:11.063Z,55.19
2022-09-16T22:09:38.383Z,54.79
2022-09-16T22:12:08.286Z,54.65
2022-09-16T22:14:37.307Z,54.85
2022-09-16T22:17:07.206Z,54.67
2022-09-16T22:19:35.040Z,54.61
2022-09-16T22:22:11.180Z,54.47
2022-09-16T22:24:39.505Z,54.56
2022-09-16T22:27:08.596Z,55.05
2022-09-16T22:29:37.624Z,55.09
2022-09-16T22:32:08.945Z,55.61
2022-09-16T22:34:40.848Z,55.71
2022-09-16T22:37:10.660Z,56.20
2022-09-16T22:39:41.140Z,55.98
2022-09-16T22:42:07.773Z,56.16
2022-09-16T22:44:37.187Z,56.51
2022-09-16T22:47:06.677Z,56.71
2022-09-16T22:49:35.910Z,56.95
2022-09-16T22:52:04.125Z,57.19
2022-09-16T22:54:35.107Z,57.00
2022-09-16T22:57:06.139Z,57.43
2022-09-16T22:59:35.639Z,57.34
2022-09-16T23:02:02.453Z,57.32
2022-09-16T23:04:33.715Z,57.52
2022-09-16T23:07:01.496Z,57.46
2022-09-16T23:09:28.726Z,57.59
2022-09-16T23:11:56.831Z,57.80
2022-09-16T23:14:26.215Z,58.07
2022-09-16T23:16:56.606Z,58.03
2022-09-16T23:19:38.687Z,58.63
2022-09-16T23:22:08.457Z,58.59
2022-09-16T23:24:35.899Z,58.92
2022-09-16T23:27:08.169Z,58.85
2022-09-16T23:29:36.229Z,58.72
2022-09-16T23:32:04.849Z,58.87
2022-09-16T23:34:34.149Z,58.77
2022-09-16T23:37:02.365Z,58.78
2022-09-16T23:39:32.342Z,58.58
2022-09-16T23:42:01.807Z,58.58
2022-09-16T23:44:32.400Z,58.94
2022-09-16T23:47:00.197Z,59.06
2022-09-16T23:49:29.747Z,59.43
2022-09-16T23:52:03.701Z,59.45
2022-09-16T23:54:37.691Z,59.53
2022-09-16T23:57:06.782Z,59.63
2022-09-16T23:59:34.932Z,59.75
